Time;durP1;ratioP1;P1;durP2;ratioP2;P2;SDS_P1;SDS_P2;PMS_P1;PMS_P2;Temp;Humidity;BMP_temperature;BMP_pressure;BME280_temperature;BME280_humidity;BME280_pressure;Samples;Min_cycle;Max_cycle;Signal;HPM_P1;HPM_P2
2022/12/27 00:00:39;;;;;;;5.05;2.40;;;4.00;99.90;;;;;;5018918;28;92444;-77
2022/12/27 00:03:06;;;;;;;10.52;2.65;;;4.00;99.90;;;;;;5000783;28;93218;-77
2022/12/27 00:05:33;;;;;;;9.75;2.60;;;4.00;99.90;;;;;;4983834;28;95640;-77
2022/12/27 00:08:00;;;;;;;10.13;2.90;;;4.00;99.90;;;;;;4984148;28;92534;-77
2022/12/27 00:10:27;;;;;;;6.60;2.78;;;4.00;99.90;;;;;;5001266;28;92114;-77
2022/12/27 00:12:54;;;;;;;6.53;2.47;;;4.00;99.90;;;;;;5000443;28;93302;-77
2022/12/27 00:15:21;;;;;;;10.93;3.05;;;4.00;99.90;;;;;;5000867;28;92957;-77
2022/12/27 00:17:48;;;;;;;6.50;2.65;;;4.00;99.90;;;;;;5017589;28;94824;-78
2022/12/27 00:20:15;;;;;;;6.38;2.63;;;4.00;99.90;;;;;;5018501;28;93039;-77
2022/12/27 00:22:42;;;;;;;7.20;2.63;;;4.00;99.90;;;;;;5000637;28;93542;-77
2022/12/27 00:25:09;;;;;;;5.43;2.45;;;3.90;99.90;;;;;;5018143;28;93418;-77
2022/12/27 00:27:37;;;;;;;8.60;2.75;;;3.90;99.90;;;;;;5000987;28;92562;-77
2022/12/27 00:30:05;;;;;;;8.20;2.55;;;4.00;99.90;;;;;;4999955;28;92477;-77
2022/12/27 00:32:32;;;;;;;10.00;2.70;;;4.00;99.90;;;;;;5000244;28;95769;-77
2022/12/27 00:35:00;;;;;;;8.43;2.80;;;4.00;99.90;;;;;;5018497;28;93534;-77
2022/12/27 00:37:27;;;;;;;9.15;2.72;;;4.00;99.90;;;;;;5018323;28;93692;-77
2022/12/27 00:39:54;;;;;;;7.13;2.55;;;4.00;99.90;;;;;;5000187;28;92516;-77
2022/12/27 00:42:21;;;;;;;5.13;2.08;;;4.00;99.90;;;;;;5016987;28;95983;-77
2022/12/27 00:44:49;;;;;;;10.70;2.55;;;4.00;99.90;;;;;;5017983;28;95769;-77
2022/12/27 00:47:15;;;;;;;7.85;2.60;;;4.10;99.90;;;;;;5018021;28;92637;-77
2022/12/27 00:49:43;;;;;;;5.10;2.20;;;4.20;99.90;;;;;;5000292;28;92541;-77
2022/12/27 00:52:10;;;;;;;5.40;2.40;;;4.30;99.90;;;;;;5017809;28;93535;-77
2022/12/27 00:54:37;;;;;;;8.63;2.50;;;4.40;99.90;;;;;;4999952;28;95796;-77
2022/12/27 00:57:04;;;;;;;12.40;2.58;;;4.50;99.90;;;;;;5000091;28;92429;-77
2022/12/27 00:59:31;;;;;;;5.60;2.03;;;4.60;99.90;;;;;;5018420;28;91769;-77
2022/12/27 01:01:58;;;;;;;7.35;2.22;;;4.70;99.90;;;;;;5017342;28;97421;-77
2022/12/27 01:04:25;;;;;;;8.20;2.40;;;4.70;99.90;;;;;;4999585;28;92794;-77
2022/12/27 01:06:52;;;;;;;7.03;2.50;;;4.70;99.90;;;;;;4982534;28;94944;-77
2022/12/27 01:09:20;;;;;;;8.13;2.70;;;4.70;99.90;;;;;;4983123;28;92479;-77
2022/12/27 01:11:47;;;;;;;9.10;2.90;;;4.60;99.90;;;;;;4999672;28;94467;-77
2022/12/27 01:14:14;;;;;;;8.32;2.60;;;4.50;99.90;;;;;;4999313;28;95387;-77
2022/12/27 01:16:42;;;;;;;7.95;2.83;;;4.50;99.90;;;;;;4999421;28;92543;-77
2022/12/27 01:19:09;;;;;;;8.15;2.58;;;4.40;99.90;;;;;;5017645;28;92509;-77
2022/12/27 01:21:36;;;;;;;14.55;2.72;;;4.40;99.90;;;;;;4966811;28;96036;-77
2022/12/27 01:24:05;;;;;;;8.57;2.28;;;4.30;99.90;;;;;;4999551;28;96082;-77
2022/12/27 01:26:32;;;;;;;7.22;2.65;;;4.30;99.90;;;;;;4999896;28;92453;-77
2022/12/27 01:28:59;;;;;;;7.13;2.35;;;4.20;99.90;;;;;;5017458;28;92460;-77
2022/12/27 01:31:27;;;;;;;6.85;2.15;;;4.20;99.90;;;;;;5015732;28;94986;-77
2022/12/27 01:33:59;;;;;;;9.88;2.67;;;4.20;99.90;;;;;;5017184;28;95406;-76
2022/12/27 01:36:28;;;;;;;8.02;2.65;;;4.10;99.90;;;;;;4982607;28;92476;-77
2022/12/27 01:38:58;;;;;;;4.90;2.53;;;4.10;99.90;;;;;;4999201;28;93462;-76
2022/12/27 01:44:42;;;;;;;12.63;2.90;;;4.20;99.90;;;;;;5017311;28;92853;-76
2022/12/27 01:47:34;;;;;;;7.75;2.70;;;4.20;99.90;;;;;;5017278;28;92477;-77
2022/12/27 01:50:26;;;;;;;9.65;2.55;;;4.20;99.90;;;;;;4999532;28;91768;-76
2022/12/27 01:53:18;;;;;;;6.53;2.63;;;4.20;99.90;;;;;;5017191;28;93272;-77
2022/12/27 01:56:01;;;;;;;5.22;2.38;;;4.20;99.90;;;;;;4998990;28;94428;-77
2022/12/27 01:59:10;;;;;;;10.57;3.22;;;4.20;99.90;;;;;;4997760;28;95024;-77
2022/12/27 02:01:42;;;;;;;6.40;2.30;;;4.20;99.90;;;;;;4936123;28;92544;-77
2022/12/27 02:04:17;;;;;;;8.07;2.15;;;4.20;99.90;;;;;;4984707;28;94216;-77
2022/12/27 02:06:45;;;;;;;7.80;2.30;;;4.30;99.90;;;;;;5016906;28;92973;-77
2022/12/27 02:09:25;;;;;;;8.45;2.40;;;4.30;99.90;;;;;;5016576;28;92353;-77
2022/12/27 02:11:55;;;;;;;12.23;3.25;;;4.30;99.90;;;;;;4999299;28;92574;-78
2022/12/27 02:14:32;;;;;;;8.85;2.45;;;4.30;99.90;;;;;;5016302;28;93251;-78
2022/12/27 02:17:05;;;;;;;6.30;2.40;;;4.30;99.90;;;;;;5017203;28;93095;-78
2022/12/27 02:19:41;;;;;;;5.97;2.25;;;4.30;99.90;;;;;;5014920;27;92693;-78
2022/12/27 02:22:23;;;;;;;6.70;2.60;;;4.30;99.90;;;;;;4999120;28;92817;-78
2022/12/27 02:25:25;;;;;;;7.88;2.67;;;4.30;99.90;;;;;;5015374;28;96077;-77
2022/12/27 02:28:24;;;;;;;9.38;2.22;;;4.30;99.90;;;;;;4982006;28;98042;-78
2022/12/27 02:30:59;;;;;;;5.25;2.47;;;4.30;99.90;;;;;;5016838;28;92358;-77
2022/12/27 02:33:28;;;;;;;16.85;3.10;;;4.30;99.90;;;;;;5015243;28;92504;-77
2022/12/27 02:36:03;;;;;;;9.75;2.88;;;4.30;99.90;;;;;;5014938;28;94516;-77
2022/12/27 02:38:36;;;;;;;11.15;2.45;;;4.40;99.90;;;;;;4998144;28;95509;-77
2022/12/27 02:53:03;;;;;;;6.00;2.03;;;4.70;99.90;;;;;;4996707;28;94897;-77
2022/12/27 02:59:26;;;;;;;10.05;2.55;;;5.00;99.90;;;;;;5015440;28;93194;-77
2022/12/27 03:05:04;;;;;;;6.45;2.05;;;5.10;99.90;;;;;;5017045;28;92381;-77
2022/12/27 03:07:47;;;;;;;9.23;2.05;;;5.20;99.90;;;;;;5015739;28;92499;-78
2022/12/27 03:16:55;;;;;;;8.15;2.78;;;5.30;99.90;;;;;;4997890;28;92470;-78
2022/12/27 03:25:27;;;;;;;8.77;1.83;;;5.50;99.90;;;;;;5015732;28;95393;-78
2022/12/27 03:34:30;;;;;;;10.23;2.08;;;5.70;99.90;;;;;;4997660;28;96113;-78
2022/12/27 03:39:53;;;;;;;11.95;2.60;;;5.60;99.90;;;;;;5015643;28;92544;-78
2022/12/27 03:45:13;;;;;;;6.53;2.58;;;5.40;99.90;;;;;;5015637;28;93141;-78
2022/12/27 03:48:03;;;;;;;6.47;2.20;;;5.40;99.90;;;;;;5014996;28;93390;-78
2022/12/27 03:50:43;;;;;;;12.85;2.63;;;5.40;99.90;;;;;;4996158;28;94859;-78
2022/12/27 03:53:38;;;;;;;10.05;2.83;;;5.30;99.90;;;;;;5015718;28;92441;-78
2022/12/27 03:56:06;;;;;;;4.80;1.67;;;5.20;99.90;;;;;;5013073;28;93333;-77
2022/12/27 03:58:34;;;;;;;8.05;2.25;;;5.10;99.90;;;;;;5015044;28;93053;-78
2022/12/27 04:01:01;;;;;;;5.07;2.03;;;5.10;99.90;;;;;;4980997;28;92486;-77
2022/12/27 04:03:29;;;;;;;8.30;2.55;;;5.10;99.90;;;;;;4996516;28;92613;-77
2022/12/27 04:05:56;;;;;;;7.43;2.08;;;5.10;99.90;;;;;;4997207;28;93152;-77
2022/12/27 04:35:58;;;;;;;6.78;1.95;;;5.40;99.90;;;;;;5000457;28;91718;-77
2022/12/27 04:38:31;;;;;;;6.35;2.05;;;5.40;99.90;;;;;;4998182;28;93270;-77
2022/12/27 04:55:23;;;;;;;7.45;1.75;;;5.80;99.90;;;;;;4999980;28;92483;-78
2022/12/27 04:57:52;;;;;;;8.70;2.00;;;5.90;99.90;;;;;;5000022;28;92587;-78
2022/12/27 05:03:19;;;;;;;10.48;2.53;;;5.80;99.90;;;;;;5000253;28;95140;-78
2022/12/27 05:05:49;;;;;;;9.98;2.22;;;5.70;99.90;;;;;;4999587;28;93534;-78
2022/12/27 05:14:00;;;;;;;7.95;2.42;;;5.60;99.90;;;;;;5017760;28;95206;-77
2022/12/27 05:16:34;;;;;;;7.93;2.40;;;5.50;99.90;;;;;;4999906;28;93921;-77
2022/12/27 05:19:02;;;;;;;6.90;2.72;;;5.50;99.90;;;;;;5018066;28;92493;-77
2022/12/27 05:21:29;;;;;;;6.10;2.28;;;5.40;99.90;;;;;;4982769;28;95005;-77
2022/12/27 05:26:41;;;;;;;8.82;2.65;;;5.30;99.90;;;;;;4999329;28;93095;-77
2022/12/27 05:29:08;;;;;;;5.97;2.80;;;5.30;99.90;;;;;;4983244;28;91793;-77
2022/12/27 05:31:35;;;;;;;8.70;3.13;;;5.30;99.90;;;;;;4998943;28;95919;-77
2022/12/27 05:34:04;;;;;;;8.50;3.45;;;5.30;99.90;;;;;;4999393;28;95365;-77
2022/12/27 05:36:31;;;;;;;11.68;3.22;;;5.30;99.90;;;;;;4998154;28;94931;-77
2022/12/27 05:38:58;;;;;;;10.70;3.30;;;5.30;99.90;;;;;;5017368;28;92453;-77
2022/12/27 05:41:25;;;;;;;7.47;2.85;;;5.30;99.90;;;;;;4999439;28;93241;-77
2022/12/27 05:43:52;;;;;;;8.93;3.20;;;5.30;99.90;;;;;;5017037;28;93084;-77
2022/12/27 05:46:21;;;;;;;6.30;2.70;;;5.40;99.90;;;;;;4999791;28;92499;-77
2022/12/27 05:48:48;;;;;;;10.02;2.78;;;5.50;99.90;;;;;;4999411;28;92889;-77
2022/12/27 05:51:18;;;;;;;7.18;2.33;;;5.60;99.90;;;;;;4999480;28;93246;-76
2022/12/27 05:53:46;;;;;;;9.38;2.95;;;5.60;99.90;;;;;;4999210;28;95552;-76
2022/12/27 05:56:15;;;;;;;9.18;2.85;;;5.60;99.90;;;;;;4998148;28;92481;-78
2022/12/27 05:58:42;;;;;;;12.55;3.13;;;5.50;99.90;;;;;;5015677;28;92517;-76
2022/12/27 06:01:12;;;;;;;15.10;2.97;;;5.50;99.90;;;;;;4997858;28;95599;-76
2022/12/27 06:03:39;;;;;;;8.77;2.72;;;5.50;99.90;;;;;;4998267;28;98215;-76
2022/12/27 06:06:07;;;;;;;8.80;2.75;;;5.40;99.90;;;;;;4982761;28;92358;-76
2022/12/27 06:08:35;;;;;;;10.30;3.10;;;5.40;99.90;;;;;;4998895;28;93138;-76
2022/12/27 06:11:13;;;;;;;7.45;2.10;;;5.40;99.90;;;;;;5016537;28;93274;-76
2022/12/27 06:13:42;;;;;;;6.32;2.13;;;5.50;99.90;;;;;;5016935;28;93004;-76
2022/12/27 06:16:11;;;;;;;4.75;1.98;;;5.40;99.90;;;;;;5015558;28;92522;-78
2022/12/27 06:18:40;;;;;;;8.13;1.85;;;5.40;99.90;;;;;;4999430;28;91725;-76
2022/12/27 06:21:14;;;;;;;7.05;2.38;;;5.30;99.90;;;;;;4998330;28;96082;-76
2022/12/27 06:23:45;;;;;;;2.63;1.30;;;5.20;99.90;;;;;;5016779;28;93112;-77
2022/12/27 06:26:21;;;;;;;5.43;1.90;;;5.20;99.90;;;;;;4981598;28;94827;-76
2022/12/27 06:28:49;;;;;;;6.15;2.00;;;5.10;99.90;;;;;;5015686;28;92946;-76
2022/12/27 06:31:18;;;;;;;9.15;2.50;;;5.00;99.90;;;;;;5016505;28;93875;-76
2022/12/27 06:33:46;;;;;;;11.55;2.42;;;4.90;99.90;;;;;;5014839;28;93124;-76
2022/12/27 06:36:17;;;;;;;8.27;2.80;;;4.90;99.90;;;;;;5016657;28;92637;-76
2022/12/27 06:38:44;;;;;;;5.72;2.20;;;4.90;99.90;;;;;;5016887;28;92582;-76
2022/12/27 06:41:13;;;;;;;8.98;2.70;;;4.80;99.90;;;;;;4997813;28;96139;-76
2022/12/27 06:43:40;;;;;;;10.98;2.17;;;4.80;99.90;;;;;;5015502;28;93048;-76
2022/12/27 06:46:13;;;;;;;12.27;3.17;;;4.80;99.90;;;;;;4998132;28;93282;-76
2022/12/27 06:48:45;;;;;;;7.22;2.30;;;4.80;99.90;;;;;;4998180;28;92592;-76
2022/12/27 06:51:14;;;;;;;11.98;2.65;;;4.80;99.90;;;;;;4980454;28;98505;-76
2022/12/27 06:53:45;;;;;;;13.95;2.80;;;4.80;99.90;;;;;;5016100;28;95429;-76
2022/12/27 06:56:17;;;;;;;6.18;2.58;;;4.70;99.90;;;;;;5015060;28;92516;-77
2022/12/27 06:58:48;;;;;;;7.28;2.22;;;4.70;99.90;;;;;;5016305;28;92403;-76
2022/12/27 07:01:18;;;;;;;6.18;1.90;;;4.70;99.90;;;;;;5016154;28;93350;-76
2022/12/27 07:03:52;;;;;;;5.22;2.10;;;4.70;99.90;;;;;;5014229;28;93289;-77
2022/12/27 07:06:20;;;;;;;10.95;2.15;;;4.70;99.90;;;;;;5014773;28;92489;-76
2022/12/27 07:08:49;;;;;;;10.43;2.08;;;4.60;99.90;;;;;;5016002;28;102370;-77
2022/12/27 07:11:17;;;;;;;5.78;2.45;;;4.60;99.90;;;;;;5015550;28;93179;-76
2022/12/27 07:13:47;;;;;;;7.93;2.40;;;4.60;99.90;;;;;;4997549;28;95615;-76
2022/12/27 07:16:18;;;;;;;11.00;2.45;;;4.60;99.90;;;;;;4996575;28;94843;-76
2022/12/27 07:18:46;;;;;;;11.32;3.10;;;4.50;99.90;;;;;;5016096;28;92496;-76
2022/12/27 07:21:20;;;;;;;10.68;3.25;;;4.50;99.90;;;;;;4981486;28;95818;-76
2022/12/27 07:23:47;;;;;;;6.78;2.63;;;4.50;99.90;;;;;;5015547;28;93220;-76
2022/12/27 07:26:16;;;;;;;11.23;3.65;;;4.50;99.90;;;;;;5015705;28;92908;-76
2022/12/27 07:28:43;;;;;;;9.90;3.00;;;4.50;99.90;;;;;;4997571;28;92518;-77
2022/12/27 07:31:14;;;;;;;11.65;3.30;;;4.50;99.90;;;;;;4997765;28;93508;-76
2022/12/27 07:33:41;;;;;;;11.20;3.28;;;4.50;99.90;;;;;;4997852;28;95658;-76
2022/12/27 07:36:12;;;;;;;7.18;2.97;;;4.60;99.90;;;;;;5015572;28;92472;-76
2022/12/27 07:38:39;;;;;;;11.43;2.85;;;4.70;99.90;;;;;;5015833;28;92365;-76
2022/12/27 07:41:07;;;;;;;10.23;2.70;;;4.70;99.90;;;;;;5014309;28;95597;-76
2022/12/27 07:43:35;;;;;;;8.32;2.70;;;4.70;99.90;;;;;;5015218;28;95409;-76
2022/12/27 07:46:14;;;;;;;6.53;2.97;;;4.80;99.90;;;;;;5015502;28;92437;-76
2022/12/27 07:48:41;;;;;;;12.93;3.15;;;4.90;99.90;;;;;;4980946;28;92912;-76
2022/12/27 07:51:10;;;;;;;8.00;2.40;;;4.90;99.90;;;;;;4997155;28;95968;-77
2022/12/27 07:53:37;;;;;;;11.93;3.00;;;5.00;99.90;;;;;;5015472;28;93055;-77
2022/12/27 07:56:12;;;;;;;8.13;2.67;;;5.00;99.90;;;;;;5015245;28;93199;-77
2022/12/27 07:58:42;;;;;;;10.18;3.42;;;5.00;99.90;;;;;;4998235;28;91725;-76
2022/12/27 08:01:11;;;;;;;9.20;3.10;;;5.00;99.90;;;;;;4997152;28;95739;-77
2022/12/27 08:03:39;;;;;;;11.70;4.40;;;5.00;99.90;;;;;;5014997;28;94217;-77
2022/12/27 08:06:14;;;;;;;7.15;3.08;;;5.00;99.90;;;;;;5012895;28;95413;-77
2022/12/27 08:08:44;;;;;;;7.13;3.28;;;5.00;99.90;;;;;;4997270;28;92542;-76
2022/12/27 08:11:11;;;;;;;12.90;3.65;;;5.00;99.90;;;;;;5014939;28;93257;-76
2022/12/27 08:13:38;;;;;;;13.25;2.83;;;5.00;99.90;;;;;;5015021;28;92969;-76
2022/12/27 08:16:05;;;;;;;8.05;3.22;;;5.00;99.90;;;;;;4997506;28;92434;-77
2022/12/27 08:18:32;;;;;;;9.18;3.05;;;4.90;99.90;;;;;;4998414;28;92486;-77
2022/12/27 08:20:59;;;;;;;10.65;3.35;;;4.90;99.90;;;;;;5000536;28;93678;-76
2022/12/27 08:23:26;;;;;;;14.13;3.50;;;4.90;99.90;;;;;;5000892;28;96122;-76
2022/12/27 08:25:53;;;;;;;10.90;3.35;;;4.90;99.90;;;;;;5000756;28;92635;-77
2022/12/27 08:28:20;;;;;;;12.73;3.20;;;4.90;99.90;;;;;;5017984;28;94672;-77
2022/12/27 08:30:47;;;;;;;8.18;3.78;;;4.90;99.90;;;;;;4982943;28;95666;-77
2022/12/27 08:33:14;;;;;;;14.45;3.60;;;4.80;99.90;;;;;;4999937;28;98387;-77
2022/12/27 08:35:44;;;;;;;9.32;4.45;;;4.80;99.90;;;;;;4984026;28;92665;-77
2022/12/27 08:38:20;;;;;;;12.25;4.32;;;4.80;99.90;;;;;;5018461;28;93103;-77
2022/12/27 08:40:47;;;;;;;8.07;3.25;;;4.80;99.90;;;;;;5018456;28;93181;-77
2022/12/27 08:43:14;;;;;;;10.52;3.28;;;4.80;99.90;;;;;;5018008;28;93133;-77
2022/12/27 08:45:42;;;;;;;19.83;9.52;;;4.80;99.90;;;;;;5018382;28;92471;-77
2022/12/27 08:48:08;;;;;;;9.68;4.00;;;4.90;99.90;;;;;;5000302;28;91737;-77
2022/12/27 08:50:36;;;;;;;14.23;3.42;;;4.90;99.90;;;;;;5000136;28;96091;-77
2022/12/27 08:53:04;;;;;;;22.98;8.13;;;4.90;99.90;;;;;;4999977;28;93119;-77
2022/12/27 08:55:32;;;;;;;8.70;3.15;;;4.90;99.90;;;;;;5015805;28;95485;-77
2022/12/27 08:58:03;;;;;;;14.05;3.72;;;4.90;99.90;;;;;;4983423;28;92940;-77
2022/12/27 09:00:35;;;;;;;7.18;3.25;;;4.90;99.90;;;;;;5018261;28;92359;-77
2022/12/27 09:03:03;;;;;;;12.60;4.40;;;5.00;99.90;;;;;;5000212;28;92959;-77
2022/12/27 09:05:30;;;;;;;11.88;3.28;;;5.00;99.90;;;;;;5018041;28;92887;-77
2022/12/27 09:08:00;;;;;;;8.63;3.22;;;5.10;99.90;;;;;;4983359;28;93946;-77
2022/12/27 09:10:27;;;;;;;9.30;3.60;;;5.10;99.90;;;;;;5017692;28;93355;-77
2022/12/27 09:12:54;;;;;;;11.30;3.13;;;5.10;99.90;;;;;;4999962;28;95348;-77
2022/12/27 09:15:21;;;;;;;9.70;3.78;;;5.10;99.90;;;;;;4999882;28;92575;-77
2022/12/27 09:17:48;;;;;;;11.70;3.58;;;5.10;99.90;;;;;;4983539;28;92528;-77
2022/12/27 09:20:15;;;;;;;7.28;3.42;;;5.10;99.90;;;;;;4998506;28;95821;-77
2022/12/27 09:22:42;;;;;;;15.80;4.07;;;5.20;99.90;;;;;;5017426;28;95496;-77
2022/12/27 09:25:09;;;;;;;10.43;3.47;;;5.20;99.90;;;;;;4999215;28;92590;-77
2022/12/27 09:27:37;;;;;;;10.68;4.38;;;5.30;99.90;;;;;;5017577;28;92485;-77
2022/12/27 09:30:05;;;;;;;10.55;4.30;;;5.40;99.90;;;;;;5017246;28;93317;-77
2022/12/27 09:32:33;;;;;;;11.02;4.13;;;5.40;99.90;;;;;;4999764;28;93086;-77
2022/12/27 09:35:00;;;;;;;12.68;3.63;;;5.50;99.90;;;;;;4999327;28;92549;-77
2022/12/27 09:37:27;;;;;;;14.05;3.70;;;5.50;99.90;;;;;;5017637;28;91693;-77
2022/12/27 09:39:54;;;;;;;10.95;3.65;;;5.50;99.90;;;;;;5017242;28;93300;-77
2022/12/27 09:42:53;;;;;;;9.82;3.70;;;5.60;99.90;;;;;;4982289;28;98933;-77
2022/12/27 09:45:42;;;;;;;9.80;4.13;;;5.60;99.90;;;;;;4980647;28;94945;-77
2022/12/27 09:48:14;;;;;;;8.23;3.90;;;5.60;99.90;;;;;;4999693;28;92474;-77
2022/12/27 09:50:48;;;;;;;9.85;3.67;;;5.60;99.90;;;;;;5016015;28;93423;-77
2022/12/27 09:53:29;;;;;;;10.57;3.88;;;5.70;99.90;;;;;;4999474;28;92985;-77
2022/12/27 09:55:57;;;;;;;20.48;11.75;;;5.80;99.90;;;;;;5017102;28;92385;-77
2022/12/27 09:58:48;;;;;;;11.75;6.47;;;5.80;99.90;;;;;;5016358;28;92430;-77
2022/12/27 10:01:39;;;;;;;10.02;3.78;;;5.90;99.90;;;;;;5016758;28;93232;-77
2022/12/27 10:04:13;;;;;;;16.65;5.30;;;5.90;99.90;;;;;;5017257;28;92971;-77
2022/12/27 10:06:49;;;;;;;21.70;7.28;;;6.00;99.90;;;;;;5015944;28;92570;-77
2022/12/27 10:09:30;;;;;;;28.00;8.70;;;6.10;99.90;;;;;;5016922;28;92446;-77
2022/12/27 10:11:59;;;;;;;13.65;5.43;;;6.10;99.90;;;;;;4997955;28;95706;-78
2022/12/27 10:14:44;;;;;;;8.38;3.60;;;6.10;99.90;;;;;;4998264;28;98123;-77
2022/12/27 10:17:26;;;;;;;9.55;3.47;;;6.20;99.90;;;;;;5017114;28;92535;-77
2022/12/27 10:20:27;;;;;;;10.07;3.63;;;6.30;99.90;;;;;;4999448;28;92959;-77
2022/12/27 10:22:59;;;;;;;10.52;3.85;;;6.40;99.90;;;;;;5016587;28;93638;-77
2022/12/27 10:25:34;;;;;;;9.43;3.38;;;6.40;99.90;;;;;;5016507;28;93560;-77
2022/12/27 10:28:12;;;;;;;8.50;3.88;;;6.40;99.90;;;;;;4998951;28;93093;-77
2022/12/27 10:30:40;;;;;;;15.15;3.95;;;6.50;99.90;;;;;;4998676;28;91809;-77
2022/12/27 10:33:35;;;;;;;11.48;4.72;;;6.60;99.90;;;;;;4998184;28;94161;-77
2022/12/27 10:36:08;;;;;;;12.25;3.72;;;6.70;99.90;;;;;;4998286;28;94205;-77
2022/12/27 10:38:36;;;;;;;10.45;3.70;;;6.70;99.90;;;;;;5015245;28;94728;-77
2022/12/27 10:41:23;;;;;;;7.00;3.17;;;6.80;99.90;;;;;;4998158;28;92399;-77
2022/12/27 10:43:52;;;;;;;8.40;2.85;;;6.90;99.90;;;;;;5016099;28;93288;-77
2022/12/27 10:46:23;;;;;;;9.90;3.25;;;6.90;99.90;;;;;;5015916;28;93377;-77
2022/12/27 10:48:57;;;;;;;9.68;4.05;;;7.00;99.90;;;;;;5015522;28;92345;-77
2022/12/27 10:51:51;;;;;;;9.38;4.07;;;7.10;99.90;;;;;;5016255;28;92455;-77
2022/12/27 10:54:25;;;;;;;6.57;2.97;;;7.30;99.90;;;;;;4998054;28;95854;-77
2022/12/27 10:56:53;;;;;;;12.98;3.33;;;7.50;99.90;;;;;;4998310;28;95360;-77
2022/12/27 10:59:25;;;;;;;11.57;3.72;;;7.70;99.90;;;;;;5016134;28;92882;-77
2022/12/27 11:02:01;;;;;;;9.80;2.90;;;7.80;99.90;;;;;;5015290;28;92527;-77
2022/12/27 11:04:30;;;;;;;7.63;3.20;;;8.00;99.90;;;;;;5014461;28;95440;-77
2022/12/27 11:07:03;;;;;;;10.85;2.85;;;8.00;99.90;;;;;;4997600;28;98144;-77
2022/12/27 11:09:42;;;;;;;13.68;2.85;;;8.10;99.90;;;;;;5015943;28;92534;-77
2022/12/27 11:12:15;;;;;;;9.30;2.75;;;8.20;99.90;;;;;;5016312;28;92942;-77
2022/12/27 11:15:09;;;;;;;8.35;3.20;;;8.20;99.90;;;;;;5015478;28;93323;-77
2022/12/27 11:17:41;;;;;;;12.57;3.05;;;8.30;99.90;;;;;;4997553;28;95965;-77
2022/12/27 11:20:19;;;;;;;9.70;2.90;;;8.20;99.90;;;;;;5014975;28;92614;-77
2022/12/27 11:22:56;;;;;;;7.57;3.05;;;8.30;99.90;;;;;;5016224;28;91678;-77
2022/12/27 11:25:25;;;;;;;7.82;3.22;;;8.20;99.90;;;;;;4981126;28;96155;-77
2022/12/27 11:28:19;;;;;;;8.40;3.10;;;8.20;99.90;;;;;;5015759;28;93178;-77
2022/12/27 11:31:13;;;;;;;6.50;2.83;;;8.30;99.90;;;;;;5012909;28;94939;-77
2022/12/27 11:33:55;;;;;;;9.38;2.40;;;8.30;99.90;;;;;;4997422;28;93097;-77
2022/12/27 11:36:39;;;;;;;14.48;2.85;;;8.40;99.90;;;;;;4997486;28;95743;-77
2022/12/27 11:39:07;;;;;;;6.22;2.90;;;8.50;99.90;;;;;;4997494;28;94056;-77
2022/12/27 11:41:51;;;;;;;12.75;2.92;;;8.50;99.90;;;;;;5015647;28;93065;-77
2022/12/27 11:44:28;;;;;;;9.15;3.20;;;8.50;99.90;;;;;;4998084;28;92476;-77
2022/12/27 11:47:22;;;;;;;5.57;2.05;;;8.50;99.90;;;;;;4980789;28;95871;-77
2022/12/27 11:49:54;;;;;;;8.90;2.80;;;8.60;99.90;;;;;;5014540;28;93054;-77
2022/12/27 11:52:40;;;;;;;8.75;3.10;;;8.60;99.90;;;;;;4981094;28;93457;-77
2022/12/27 11:55:55;;;;;;;9.95;2.47;;;8.80;99.90;;;;;;5001474;28;93213;-77
2022/12/27 11:58:48;;;;;;;8.40;2.97;;;8.80;99.90;;;;;;5016571;28;95570;-77
2022/12/27 12:01:41;;;;;;;11.50;2.90;;;8.70;99.90;;;;;;5018660;28;95305;-77
2022/12/27 12:04:26;;;;;;;8.02;2.72;;;8.60;99.90;;;;;;5001058;28;92819;-77
2022/12/27 12:07:15;;;;;;;10.07;3.13;;;8.50;99.90;;;;;;5018898;28;92470;-77
2022/12/27 12:10:05;;;;;;;13.25;4.38;;;8.40;99.90;;;;;;4983862;28;95939;-77
2022/12/27 12:12:35;;;;;;;11.85;3.83;;;8.30;99.90;;;;;;5018563;28;93123;-77
2022/12/27 12:15:27;;;;;;;9.55;2.88;;;8.30;99.90;;;;;;5000748;28;92581;-77
2022/12/27 12:18:04;;;;;;;7.55;2.70;;;8.30;99.90;;;;;;5019001;28;91596;-77
2022/12/27 12:20:45;;;;;;;10.02;2.72;;;8.20;99.90;;;;;;5017537;28;92526;-77
2022/12/27 12:23:24;;;;;;;7.88;2.60;;;8.30;99.90;;;;;;5017573;28;93136;-77
2022/12/27 12:26:32;;;;;;;6.18;2.38;;;8.20;99.90;;;;;;4982795;28;95038;-77
2022/12/27 12:29:14;;;;;;;6.35;3.00;;;8.30;99.90;;;;;;4962771;28;92961;-77
2022/12/27 12:32:23;;;;;;;7.78;2.47;;;8.20;99.90;;;;;;5018164;28;93243;-77
2022/12/27 12:35:17;;;;;;;8.40;2.80;;;8.10;99.90;;;;;;5018181;28;92985;-77
2022/12/27 12:38:10;;;;;;;8.80;2.00;;;8.10;99.90;;;;;;5018323;28;92473;-76
2022/12/27 12:41:14;;;;;;;6.63;2.92;;;8.10;99.90;;;;;;4999629;28;93038;-76
2022/12/27 12:43:58;;;;;;;12.77;4.35;;;8.10;99.90;;;;;;5017931;28;93581;-76
2022/12/27 12:46:31;;;;;;;6.27;2.10;;;8.00;99.90;;;;;;5000969;28;92240;-76
2022/12/27 12:49:16;;;;;;;8.55;2.80;;;8.00;99.90;;;;;;5018095;28;92342;-76
2022/12/27 12:52:11;;;;;;;8.63;2.35;;;8.00;99.90;;;;;;5000582;28;92491;-77
2022/12/27 12:54:50;;;;;;;;;;;8.10;99.90;;;;;;4982322;28;98322;-77
2022/12/27 12:57:23;;;;;;;9.60;2.72;;;8.00;99.90;;;;;;5001063;28;97292;-77
2022/12/27 13:00:01;;;;;;;9.18;2.47;;;8.00;99.90;;;;;;5018200;28;92970;-77
2022/12/27 13:03:07;;;;;;;9.27;2.85;;;8.10;99.90;;;;;;5017085;28;92606;-77
2022/12/27 13:06:10;;;;;;;12.63;3.40;;;8.20;99.90;;;;;;5017191;28;93279;-77
2022/12/27 13:08:46;;;;;;;8.23;2.70;;;8.30;99.90;;;;;;5017614;28;93120;-77
2022/12/27 13:11:28;;;;;;;5.72;2.25;;;8.30;99.90;;;;;;5018095;28;92407;-77
2022/12/27 13:14:33;;;;;;;8.20;2.97;;;8.40;99.90;;;;;;5000363;28;91662;-77
2022/12/27 13:17:46;;;;;;;13.65;3.10;;;8.40;99.90;;;;;;5016152;28;95720;-77
2022/12/27 13:20:16;;;;;;;8.23;2.90;;;8.40;99.90;;;;;;5001653;28;93108;-77
2022/12/27 13:23:08;;;;;;;8.57;3.50;;;8.30;99.90;;;;;;4981521;28;95038;-77
2022/12/27 13:25:40;;;;;;;7.25;2.90;;;8.40;99.90;;;;;;5017888;28;92364;-77
2022/12/27 13:28:28;;;;;;;7.90;3.80;;;8.40;99.90;;;;;;5017739;28;93892;-77
2022/12/27 13:31:17;;;;;;;10.70;3.40;;;8.50;99.90;;;;;;5017345;28;92927;-77
2022/12/27 13:34:21;;;;;;;9.75;4.40;;;8.50;99.90;;;;;;5017632;28;93005;-77
2022/12/27 13:37:09;;;;;;;8.70;4.60;;;8.50;99.90;;;;;;4982552;28;92543;-77
2022/12/27 13:39:56;;;;;;;12.63;4.93;;;8.50;99.90;;;;;;4999320;28;95847;-77
2022/12/27 13:42:41;;;;;;;10.70;4.95;;;8.50;99.90;;;;;;5017839;28;93188;-77
2022/12/27 13:45:39;;;;;;;9.73;4.32;;;8.50;99.90;;;;;;5017668;28;92754;-77
2022/12/27 13:48:28;;;;;;;5.72;3.67;;;8.50;99.90;;;;;;5017572;28;92498;-77
2022/12/27 13:51:19;;;;;;;9.73;4.20;;;8.40;99.90;;;;;;4998192;28;95549;-77
2022/12/27 13:54:14;;;;;;;10.65;4.40;;;8.40;99.90;;;;;;5016631;28;97406;-77
2022/12/27 13:57:04;;;;;;;9.07;4.47;;;8.40;99.90;;;;;;4999406;28;93197;-77
2022/12/27 14:00:13;;;;;;;11.15;4.82;;;8.40;99.90;;;;;;5017539;28;92339;-77
2022/12/27 14:03:01;;;;;;;10.70;4.85;;;8.40;99.90;;;;;;4972393;28;93317;-77
2022/12/27 14:05:44;;;;;;;12.10;5.05;;;8.30;99.90;;;;;;4981683;28;96387;-77
2022/12/27 14:08:50;;;;;;;10.98;5.72;;;8.30;99.90;;;;;;4998884;28;92459;-77
2022/12/27 14:11:26;;;;;;;14.68;5.50;;;8.20;99.90;;;;;;4999627;28;92366;-77
2022/12/27 14:13:56;;;;;;;9.55;5.70;;;8.20;99.90;;;;;;5016880;28;93256;-77
2022/12/27 14:16:37;;;;;;;11.75;6.05;;;8.10;99.90;;;;;;5015663;28;92522;-77
2022/12/27 14:19:45;;;;;;;13.27;5.60;;;8.10;99.90;;;;;;5014522;28;94903;-77
2022/12/27 14:22:17;;;;;;;11.43;6.30;;;8.10;99.90;;;;;;5006142;28;92559;-77
2022/12/27 14:25:22;;;;;;;10.52;7.65;;;7.90;99.90;;;;;;4998766;28;93163;-77
2022/12/27 14:28:11;;;;;;;13.27;7.82;;;8.00;99.90;;;;;;5016302;28;92481;-77
2022/12/27 14:30:40;;;;;;;16.42;7.30;;;7.90;99.90;;;;;;5016749;28;92391;-77
2022/12/27 14:33:55;;;;;;;16.73;8.77;;;7.80;99.90;;;;;;4998541;28;93576;-77
2022/12/27 14:36:28;;;;;;;18.73;9.17;;;7.90;99.90;;;;;;4934987;28;96056;-77
2022/12/27 14:39:11;;;;;;;11.13;8.50;;;7.80;99.90;;;;;;5010421;28;93285;-77
2022/12/27 14:42:14;;;;;;;17.70;8.57;;;7.80;99.90;;;;;;5015462;28;92801;-77
2022/12/27 14:44:51;;;;;;;17.48;9.80;;;7.80;99.90;;;;;;4972511;28;92626;-77
2022/12/27 14:47:22;;;;;;;16.00;10.55;;;7.70;99.90;;;;;;5015266;28;94887;-77
2022/12/27 14:50:15;;;;;;;15.77;9.82;;;7.70;99.90;;;;;;4997601;28;98144;-77
2022/12/27 14:53:21;;;;;;;20.83;14.02;;;7.80;99.90;;;;;;4998828;28;92532;-77
2022/12/27 14:55:48;;;;;;;12.68;10.00;;;7.80;99.90;;;;;;4977899;28;92588;-77
2022/12/27 14:58:35;;;;;;;14.52;10.30;;;7.80;99.90;;;;;;4996611;28;95920;-77
2022/12/27 15:01:19;;;;;;;16.35;10.60;;;7.90;99.90;;;;;;5014253;28;93117;-77
2022/12/27 15:04:10;;;;;;;20.90;11.82;;;7.90;99.90;;;;;;4980962;28;92518;-77
2022/12/27 15:06:53;;;;;;;27.85;17.55;;;7.90;99.90;;;;;;4998274;28;91764;-77
2022/12/27 15:09:46;;;;;;;15.85;10.55;;;7.90;99.90;;;;;;4997977;28;92827;-77
2022/12/27 15:12:26;;;;;;;13.93;12.25;;;7.90;99.90;;;;;;4997209;28;96715;-77
2022/12/27 15:14:54;;;;;;;17.13;11.70;;;7.80;99.90;;;;;;4996157;28;95005;-77
2022/12/27 15:17:58;;;;;;;18.80;11.82;;;7.80;99.90;;;;;;5015344;28;92997;-77